Pagrindinis puslapis
METAR-TAF:

METAR-TAF

Oro uostai :

Abumusa, Iranas

platuma: 25-52-33N, ilguma: 055-02-01E, Aukštis: 7 m

Dabartinis oras

Ataskaita buvo paskelbta 28 minutes, ne 04:00 UTC
Vėjas 6 kt iš Rytų/Šiaurės Rytų
Temperatūra 27°C
Drėgmė 70%
Slėgis 1009 hPa
Matomumas: 2500 m
migla,

METAR: OIBA 220400Z 06006KT 2500 HZ NSC 27/21 Q1009

Laikas: 08:58 (04:28 UTC)


TAF: trūkstamas

Orai ataskaitas ir orų prognozės (METAR, TAF).

turimą stotys yra geltonos ir raudonos taškus žemėlapyje.

Perkelti pele per norėdami pamatyti stoties vardą.

Tada spustelėkite, norėdami matyti oro stebėjimo ir prognozės.

Norėdami pakeisti žemėlapį: spustelėkite ant žalios mygtukų su juodo kryžiaus žemyn,; žalią mygtuką su brūkšneliu, jei norite nutolinti; arba žalių rodyklių gretimoms žemėlapius.


METAR-TAF: